Time;durP1;ratioP1;P1;durP2;ratioP2;P2;SDS_P1;SDS_P2;PMS_P1;PMS_P2;Temp;Humidity;BMP_temperature;BMP_pressure;BME280_temperature;BME280_humidity;BME280_pressure;Samples;Min_cycle;Max_cycle;Signal;HPM_P1;HPM_P2
2021/04/12 00:00:59;;;;;;;;;;;5.80;99.90;;;;;;5093253;28;19955;-78
2021/04/12 00:03:30;;;;;;;;;;;5.80;99.90;;;;;;5092403;28;19934;-77
2021/04/12 00:06:14;;;;;;;;;;;5.70;99.90;;;;;;5093431;28;20467;-77
2021/04/12 00:08:52;;;;;;;;;;;5.70;99.90;;;;;;5091794;28;19912;-77
2021/04/12 00:11:23;;;;;;;;;;;5.80;99.90;;;;;;5092619;28;19904;-78
2021/04/12 00:13:54;;;;;;;;;;;5.60;99.90;;;;;;5092372;28;20341;-78
2021/04/12 00:16:19;;;;;;;;;;;5.70;99.90;;;;;;5091641;28;19927;-78
2021/04/12 00:18:44;;;;;;;;;;;5.80;99.90;;;;;;5092852;28;19911;-77
2021/04/12 00:21:10;;;;;;;;;;;5.60;99.90;;;;;;5091512;28;20343;-77
2021/04/12 00:23:40;;;;;;;;;;;5.60;99.90;;;;;;5092750;28;19904;-77
2021/04/12 00:26:08;;;;;;;;;;;5.50;99.90;;;;;;5092801;28;20381;-77
2021/04/12 00:28:43;;;;;;;;;;;5.40;99.90;;;;;;5091222;28;19904;-77
2021/04/12 00:31:12;;;;;;;;;;;5.50;99.90;;;;;;5091663;28;19908;-77
2021/04/12 00:33:43;;;;;;;;;;;5.50;99.90;;;;;;5092491;28;19957;-77
2021/04/12 00:36:16;;;;;;;;;;;5.50;99.90;;;;;;5092520;28;20383;-76
2021/04/12 00:38:44;;;;;;;;;;;5.60;99.90;;;;;;5091351;28;19912;-77
2021/04/12 00:41:16;;;;;;;;;;;5.60;99.90;;;;;;5092070;28;19904;-77
2021/04/12 00:43:56;;;;;;;;;;;5.40;99.90;;;;;;5092249;28;19904;-77
2021/04/12 00:46:40;;;;;;;;;;;5.50;99.90;;;;;;5090934;28;19999;-76
2021/04/12 00:49:22;;;;;;;;;;;5.50;99.90;;;;;;5092170;28;19904;-76
2021/04/12 00:51:51;;;;;;;;;;;5.50;99.90;;;;;;5090896;28;20314;-77
2021/04/12 00:54:35;;;;;;;;;;;5.40;99.90;;;;;;5092405;28;20366;-77
2021/04/12 00:57:03;;;;;;;;;;;5.40;99.90;;;;;;5092629;28;20381;-76
2021/04/12 00:59:35;;;;;;;;;;;5.40;99.90;;;;;;5091160;28;19947;-77
2021/04/12 01:02:21;;;;;;;;;;;5.50;99.90;;;;;;5092250;28;19905;-77
2021/04/12 01:04:52;;;;;;;;;;;5.40;99.90;;;;;;5091025;28;19904;-77
2021/04/12 01:07:38;;;;;;;;;;;5.30;99.90;;;;;;5092524;28;19904;-78
2021/04/12 01:10:22;;;;;;;;;;;5.30;99.90;;;;;;5081362;28;19943;-77
2021/04/12 01:12:53;;;;;;;;;;;5.40;99.90;;;;;;5092243;28;20013;-77
2021/04/12 01:15:22;;;;;;;;;;;5.30;99.90;;;;;;5092215;28;20359;-77
2021/04/12 01:17:47;;;;;;;;;;;5.30;99.90;;;;;;5092321;28;19913;-77
2021/04/12 01:20:31;;;;;;;;;;;5.30;99.90;;;;;;5090839;28;19904;-77
2021/04/12 01:23:15;;;;;;;;;;;5.30;99.90;;;;;;5092426;28;19949;-77
2021/04/12 01:25:53;;;;;;;;;;;5.20;99.90;;;;;;5092432;28;19904;-76
2021/04/12 01:28:42;;;;;;;;;;;5.30;99.90;;;;;;5092395;28;19904;-77
2021/04/12 01:31:27;;;;;;;;;;;5.40;99.90;;;;;;5103032;28;19910;-77
2021/04/12 01:33:58;;;;;;;;;;;5.40;99.90;;;;;;5107376;28;19947;-77
2021/04/12 01:36:32;;;;;;;;;;;5.40;99.90;;;;;;5106429;28;19940;-77
2021/04/12 01:39:06;;;;;;;;;;;5.40;99.90;;;;;;5094950;28;19911;-77
2021/04/12 01:41:34;;;;;;;;;;;5.50;99.90;;;;;;5094624;28;19908;-77
2021/04/12 01:44:09;;;;;;;;;;;5.30;99.90;;;;;;5094347;28;19908;-76
2021/04/12 01:46:52;;;;;;;;;;;5.20;99.90;;;;;;5095721;28;20282;-77
2021/04/12 01:49:24;;;;;;;;;;;5.30;99.90;;;;;;5095653;28;19904;-77
2021/04/12 01:52:01;;;;;;;;;;;5.20;99.90;;;;;;5094385;28;19904;-76
2021/04/12 01:54:34;;;;;;;;;;;5.30;99.90;;;;;;5093755;28;19961;-77
2021/04/12 01:57:14;;;;;;;;;;;5.40;99.90;;;;;;5095306;28;19904;-77
2021/04/12 01:59:55;;;;;;;;;;;5.20;99.90;;;;;;5095339;28;19905;-77
2021/04/12 02:02:20;;;;;;;;;;;5.20;99.90;;;;;;5095474;28;19910;-77
2021/04/12 02:04:45;;;;;;;;;;;5.10;99.90;;;;;;5095108;28;19999;-77
2021/04/12 02:07:20;;;;;;;;;;;5.00;99.90;;;;;;5095313;28;19904;-77
2021/04/12 02:10:04;;;;;;;;;;;4.90;99.90;;;;;;5093831;28;19951;-76
2021/04/12 02:12:30;;;;;;;;;;;5.00;99.90;;;;;;5093899;28;19904;-77
2021/04/12 02:14:55;;;;;;;;;;;5.10;99.90;;;;;;5094733;28;19914;-77
2021/04/12 02:17:27;;;;;;;;;;;5.00;99.90;;;;;;5094903;28;20230;-77
2021/04/12 02:20:11;;;;;;;;;;;5.00;99.90;;;;;;5094856;28;20287;-76
2021/04/12 02:23:02;;;;;;;;;;;4.90;99.90;;;;;;5094967;28;19904;-77
2021/04/12 02:25:31;;;;;;;;;;;4.80;99.90;;;;;;5094425;28;19936;-77
2021/04/12 02:28:03;;;;;;;;;;;4.90;99.90;;;;;;5093603;28;19927;-77
2021/04/12 02:30:49;;;;;;;;;;;5.00;99.90;;;;;;5094410;28;19947;-78
2021/04/12 02:33:33;;;;;;;;;;;5.00;99.90;;;;;;5093241;28;19916;-77
2021/04/12 02:36:01;;;;;;;;;;;4.90;99.90;;;;;;5094879;28;19903;-77
2021/04/12 02:38:45;;;;;;;;;;;4.70;99.90;;;;;;5093297;28;20355;-77
2021/04/12 02:41:14;;;;;;;;;;;4.70;99.90;;;;;;5094589;28;20310;-76
2021/04/12 02:44:00;;;;;;;;;;;4.70;99.90;;;;;;5092959;28;20283;-77
2021/04/12 02:46:52;;;;;;;;;;;4.60;99.90;;;;;;5092361;28;19982;-76
2021/04/12 02:49:26;;;;;;;;;;;4.50;99.90;;;;;;5094376;28;19947;-77
2021/04/12 02:52:10;;;;;;;;;;;4.50;99.90;;;;;;5094402;28;19957;-77
2021/04/12 02:55:03;;;;;;;;;;;4.60;99.90;;;;;;5092363;28;19908;-76
2021/04/12 02:57:42;;;;;;;;;;;4.60;99.90;;;;;;5092865;28;19911;-76
2021/04/12 03:00:11;;;;;;;;;;;4.70;99.90;;;;;;5092391;28;20371;-77
2021/04/12 03:02:46;;;;;;;;;;;4.70;99.90;;;;;;5093793;28;19911;-77
2021/04/12 03:05:34;;;;;;;;;;;4.60;99.90;;;;;;5093459;28;19950;-77
2021/04/12 03:08:11;;;;;;;;;;;4.80;99.90;;;;;;5093710;28;19957;-76
2021/04/12 03:10:57;;;;;;;;;;;4.70;99.90;;;;;;5093825;28;19940;-76
2021/04/12 03:13:26;;;;;;;;;;;4.70;99.90;;;;;;5092162;28;19914;-77
2021/04/12 03:16:01;;;;;;;;;;;4.70;99.90;;;;;;5093460;28;19939;-77
2021/04/12 03:18:42;;;;;;;;;;;4.70;99.90;;;;;;5092394;28;19904;-77
2021/04/12 03:21:15;;;;;;;;;;;4.70;99.90;;;;;;5093528;28;19944;-77
2021/04/12 03:23:45;;;;;;;;;;;4.80;99.90;;;;;;5092593;28;19927;-77
2021/04/12 03:26:31;;;;;;;;;;;4.80;99.90;;;;;;5092285;28;19904;-77
2021/04/12 03:29:17;;;;;;;;;;;4.90;99.90;;;;;;5093628;28;19957;-77
2021/04/12 03:31:42;;;;;;;;;;;4.90;99.90;;;;;;5092233;28;19910;-77
2021/04/12 03:34:12;;;;;;;;;;;4.90;99.90;;;;;;5092711;28;20006;-76
2021/04/12 03:36:38;;;;;;;;;;;4.80;99.90;;;;;;5093517;28;19991;-77
2021/04/12 03:39:13;;;;;;;;;;;4.90;99.90;;;;;;5093485;28;20343;-77
2021/04/12 03:41:57;;;;;;;;;;;5.00;99.90;;;;;;5093122;28;19949;-77
2021/04/12 03:44:25;;;;;;;;;;;5.00;99.90;;;;;;5092461;28;19904;-77
2021/04/12 03:47:19;;;;;;;;;;;5.00;99.90;;;;;;5091822;28;19944;-77
2021/04/12 03:50:02;;;;;;;;;;;4.90;99.90;;;;;;5091916;28;19903;-77
2021/04/12 03:52:36;;;;;;;;;;;5.00;99.90;;;;;;5093221;28;19904;-77
2021/04/12 03:55:13;;;;;;;;;;;5.00;99.90;;;;;;5092417;28;19908;-77
2021/04/12 03:57:49;;;;;;;;;;;4.90;99.90;;;;;;5091832;28;20379;-77
2021/04/12 04:00:15;;;;;;;;;;;4.90;99.90;;;;;;5093055;28;19939;-77
2021/04/12 04:02:55;;;;;;;;;;;5.00;99.90;;;;;;5092916;28;19969;-77
2021/04/12 04:05:31;;;;;;;;;;;5.00;99.90;;;;;;5092391;28;19908;-77
2021/04/12 04:08:15;;;;;;;;;;;5.10;99.90;;;;;;5092000;28;19915;-77
2021/04/12 04:10:56;;;;;;;;;;;5.00;99.90;;;;;;5092767;28;20329;-77
2021/04/12 04:13:24;;;;;;;;;;;5.10;99.90;;;;;;5092894;28;19911;-77
2021/04/12 04:16:08;;;;;;;;;;;5.00;99.90;;;;;;5091407;28;20275;-77
2021/04/12 04:18:53;;;;;;;;;;;4.90;99.90;;;;;;5091453;28;19904;-77
2021/04/12 04:21:19;;;;;;;;;;;4.90;99.90;;;;;;5092963;28;20348;-77
2021/04/12 04:23:53;;;;;;;;;;;4.80;99.90;;;;;;5093049;28;19912;-77
2021/04/12 04:26:37;;;;;;;;;;;4.80;99.90;;;;;;5092739;28;19911;-77
2021/04/12 04:29:03;;;;;;;;;;;4.80;99.90;;;;;;5092592;28;19904;-77
2021/04/12 04:31:54;;;;;;;;;;;4.80;99.90;;;;;;5093392;28;19904;-78
2021/04/12 04:34:26;;;;;;;;;;;4.90;99.90;;;;;;5097313;28;20052;-77
2021/04/12 04:37:11;;;;;;;;;;;4.70;99.90;;;;;;5104029;28;20326;-77
2021/04/12 04:39:55;;;;;;;;;;;4.70;99.90;;;;;;5106302;28;19904;-77
2021/04/12 04:42:31;;;;;;;;;;;4.70;99.90;;;;;;5099843;28;19984;-77
2021/04/12 04:45:15;;;;;;;;;;;4.80;99.90;;;;;;5092126;28;19904;-77
2021/04/12 04:47:59;;;;;;;;;;;4.70;99.90;;;;;;5091321;28;19912;-77
2021/04/12 04:50:27;;;;;;;;;;;4.60;99.90;;;;;;5090392;28;19960;-77
2021/04/12 04:52:58;;;;;;;;;;;4.60;99.90;;;;;;5089724;28;19904;-76
2021/04/12 04:55:36;;;;;;;;;;;4.70;99.90;;;;;;5089631;28;19910;-76
2021/04/12 04:58:17;;;;;;;;;;;4.70;99.90;;;;;;5089919;28;19904;-76
2021/04/12 05:01:01;;;;;;;;;;;4.80;99.90;;;;;;5091277;28;19908;-76
2021/04/12 05:03:40;;;;;;;;;;;4.80;99.90;;;;;;5091636;28;19911;-77
2021/04/12 05:06:27;;;;;;;;;;;4.80;99.90;;;;;;5089459;28;19950;-77
2021/04/12 05:09:11;;;;;;;;;;;4.80;99.90;;;;;;5089867;28;19943;-77
2021/04/12 05:11:48;;;;;;;;;;;4.70;99.90;;;;;;5091110;28;20045;-76
2021/04/12 05:14:35;;;;;;;;;;;4.70;99.90;;;;;;5090478;28;20355;-78
2021/04/12 05:17:12;;;;;;;;;;;4.80;99.90;;;;;;5093252;28;19904;-77
2021/04/12 05:19:42;;;;;;;;;;;4.80;99.90;;;;;;5093855;28;20321;-77
2021/04/12 05:22:07;;;;;;;;;;;4.70;99.90;;;;;;5094806;28;19908;-77
2021/04/12 05:24:42;;;;;;;;;;;4.80;99.90;;;;;;5093437;28;19912;-77
2021/04/12 05:27:36;;;;;;;;;;;4.90;99.90;;;;;;5093858;28;20290;-76
2021/04/12 05:30:12;;;;;;;;;;;4.90;99.90;;;;;;5093571;28;20366;-76
2021/04/12 05:33:01;;;;;;;;;;;4.90;99.90;;;;;;5093375;28;19912;-77
2021/04/12 05:35:45;;;;;;;;;;;5.10;99.90;;;;;;5055135;28;19919;-77
2021/04/12 05:38:25;;;;;;;;;;;5.20;99.90;;;;;;5094866;28;19904;-77
2021/04/12 05:40:55;;;;;;;;;;;5.20;99.90;;;;;;5093268;28;19904;-76
2021/04/12 05:43:39;;;;;;;;;;;5.10;99.90;;;;;;5094420;28;19908;-76
2021/04/12 05:46:15;;;;;;;;;;;5.10;99.90;;;;;;5093023;28;19951;-77
2021/04/12 05:48:55;;;;;;;;;;;5.20;99.90;;;;;;5094461;28;19939;-77
2021/04/12 05:51:40;;;;;;;;;;;5.10;99.90;;;;;;5093183;28;19908;-77
2021/04/12 05:54:14;;;;;;;;;;;5.20;99.90;;;;;;5093755;28;20011;-76
2021/04/12 05:56:58;;;;;;;;;;;5.30;99.90;;;;;;5094258;28;19904;-77
2021/04/12 05:59:52;;;;;;;;;;;5.40;99.90;;;;;;5089011;28;19908;-77
2021/04/12 06:02:33;;;;;;;;;;;5.50;99.90;;;;;;5071271;28;19915;-77
2021/04/12 06:05:16;;;;;;;;;;;5.50;99.90;;;;;;5093350;28;19904;-77
2021/04/12 06:07:58;;;;;;;;;;;5.50;99.90;;;;;;5093238;28;19915;-77
2021/04/12 06:10:26;;;;;;;;;;;5.60;99.90;;;;;;5093528;28;19904;-77
2021/04/12 06:13:24;;;;;;;;;;;5.70;99.90;;;;;;5093129;28;19908;-77
2021/04/12 06:16:01;;;;;;;;;;;5.70;99.90;;;;;;5059579;28;19911;-78
2021/04/12 06:18:36;;;;;;;;;;;5.90;99.90;;;;;;5090936;28;19914;-78
2021/04/12 06:21:10;;;;;;;;;;;6.20;99.90;;;;;;5093378;28;20386;-78
2021/04/12 06:23:51;;;;;;;;;;;6.20;99.90;;;;;;5088713;28;19918;-77
2021/04/12 06:26:35;;;;;;;;;;;6.30;99.90;;;;;;5094366;28;20320;-77
2021/04/12 06:29:09;;;;;;;;;;;6.60;99.90;;;;;;5081096;28;19958;-77
2021/04/12 06:31:54;;;;;;;;;;;8.20;99.90;;;;;;5074080;28;20655;-78
2021/04/12 06:34:30;;;;;;;;;;;9.10;99.90;;;;;;5075050;28;20279;-77
2021/04/12 06:36:55;;;;;;;;;;;10.00;99.90;;;;;;5074238;28;19908;-78
2021/04/12 06:39:32;;;;;;;;;;;9.30;99.90;;;;;;5075036;28;19916;-77
2021/04/12 06:42:27;;;;;;;;;;;8.80;99.90;;;;;;5095559;28;19994;-77
2021/04/12 06:44:58;;;;;;;;;;;8.30;99.90;;;;;;5021215;28;19909;-78
2021/04/12 06:47:32;;;;;;;;;;;7.90;99.90;;;;;;5084253;28;19905;-76
2021/04/12 06:49:58;;;;;;;;;;;7.70;99.90;;;;;;5080492;28;19965;-77
2021/04/12 06:52:32;;;;;;;;;;;7.80;99.90;;;;;;5085316;28;19904;-78
2021/04/12 06:55:15;;;;;;;;;;;8.00;99.90;;;;;;5084662;28;19916;-78
2021/04/12 06:58:03;;;;;;;;;;;8.30;99.90;;;;;;5089099;28;19904;-76
2021/04/12 07:00:48;;;;;;;;;;;8.20;99.90;;;;;;5093647;28;19942;-76
2021/04/12 07:03:36;;;;;;;;;;;7.80;99.90;;;;;;5084838;28;20308;-76
2021/04/12 07:06:01;;;;;;;;;;;7.30;99.90;;;;;;5082270;28;19904;-76
2021/04/12 07:08:36;;;;;;;;;;;7.30;99.90;;;;;;5092934;28;20242;-77
2021/04/12 07:11:13;;;;;;;;;;;7.30;99.90;;;;;;5092504;28;19957;-76
2021/04/12 07:13:39;;;;;;;;;;;7.50;99.90;;;;;;5092114;28;19965;-76
2021/04/12 07:16:17;;;;;;;;;;;7.80;99.90;;;;;;5090602;28;19912;-76
2021/04/12 07:18:42;;;;;;;;;;;7.90;99.90;;;;;;5091207;28;19904;-76
2021/04/12 07:21:17;;;;;;;;;;;8.30;99.90;;;;;;5092850;28;19950;-77
2021/04/12 07:24:01;;;;;;;;;;;9.00;99.90;;;;;;5091757;28;20347;-77
2021/04/12 07:27:05;;;;;;;4.88;2.60;;;9.70;99.90;;;;;;5088203;28;19915;-76
2021/04/12 07:30:08;;;;;;;3.25;2.53;;;8.40;99.90;;;;;;5069922;28;20028;-76
2021/04/12 07:32:43;;;;;;;5.35;3.13;;;8.00;99.90;;;;;;5070575;28;20129;-76
2021/04/12 07:35:17;;;;;;;;;;;7.80;99.90;;;;;;5072214;28;20506;-75
2021/04/12 07:37:59;;;;;;;;;;;7.70;99.90;;;;;;5076137;28;19949;-76
2021/04/12 07:40:43;;;;;;;;;;;7.60;99.90;;;;;;5076851;28;19950;-76
2021/04/12 07:43:35;;;;;;;;;;;7.80;99.90;;;;;;5070860;28;19957;-77
2021/04/12 07:46:25;;;;;;;;;;;8.00;99.90;;;;;;5071511;28;19904;-76
2021/04/12 07:49:13;;;;;;;;;;;8.10;99.90;;;;;;5072553;28;19904;-78
2021/04/12 07:51:57;;;;;;;;;;;8.30;99.90;;;;;;5073699;28;19904;-78
2021/04/12 07:54:41;;;;;;;;;;;8.90;99.90;;;;;;5072800;28;19912;-77
2021/04/12 07:57:25;;;;;;;;;;;8.90;99.90;;;;;;5073900;28;20356;-78
2021/04/12 08:00:12;;;;;;;3.15;2.33;;;10.60;99.90;;;;;;5081154;28;19904;-75
2021/04/12 08:03:00;;;;;;;;;;;11.50;99.90;;;;;;5091553;28;20032;-78
2021/04/12 08:05:44;;;;;;;;;;;11.30;99.90;;;;;;5090367;28;19904;-78
2021/04/12 08:08:29;;;;;;;4.55;2.63;;;13.00;99.90;;;;;;5090884;28;19943;-75
2021/04/12 08:11:13;;;;;;;;;;;13.60;95.20;;;;;;5089910;28;20028;-76
2021/04/12 08:13:41;;;;;;;1.92;1.70;;;14.10;95.00;;;;;;5086141;28;20015;-77
2021/04/12 08:16:16;;;;;;;2.17;1.70;;;;;;;;;;5087569;28;20020;-78
2021/04/12 08:19:15;;;;;;;3.15;2.13;;;14.60;92.00;;;;;;5091099;28;20020;-76
2021/04/12 08:21:59;;;;;;;;;;;15.10;83.20;;;;;;5091843;28;20024;-76
2021/04/12 08:24:42;;;;;;;;;;;13.80;83.50;;;;;;5089439;28;19933;-77
2021/04/12 08:27:41;;;;;;;1.83;1.60;;;12.20;91.70;;;;;;5090744;28;19904;-77
2021/04/12 08:30:35;;;;;;;3.25;1.58;;;11.50;97.80;;;;;;5090522;28;20128;-77
2021/04/12 08:33:12;;;;;;;2.67;1.83;;;11.40;95.70;;;;;;5089561;28;20036;-77
2021/04/12 08:36:01;;;;;;;;;;;11.70;99.90;;;;;;5091577;28;20099;-77
2021/04/12 08:38:50;;;;;;;;;;;15.00;91.40;;;;;;5092846;28;19907;-78
2021/04/12 08:41:51;;;;;;;4.20;2.00;;;16.50;83.00;;;;;;5091026;28;19911;-78
2021/04/12 08:44:52;;;;;;;2.47;1.45;;;16.50;71.30;;;;;;5088651;28;20483;-75
2021/04/12 08:47:47;;;;;;;5.38;2.13;;;15.90;73.60;;;;;;5090457;28;20028;-75
2021/04/12 08:50:16;;;;;;;;;;;14.90;73.20;;;;;;5090264;28;20081;-75
2021/04/12 08:53:18;;;;;;;3.50;2.10;;;13.60;80.30;;;;;;5084792;28;19954;-76
2021/04/12 08:55:58;;;;;;;3.60;1.85;;;12.80;91.20;;;;;;5072715;28;20434;-77
2021/04/12 08:58:52;;;;;;;2.03;1.05;;;12.20;94.20;;;;;;5092816;28;20028;-76
2021/04/12 09:01:46;;;;;;;;;;;11.90;92.40;;;;;;5094601;28;20024;-75
2021/04/12 09:04:30;;;;;;;;;;;12.40;90.50;;;;;;5093193;28;20294;-76
2021/04/12 09:07:14;;;;;;;;;;;11.90;90.30;;;;;;5093313;28;19919;-76
2021/04/12 09:09:58;;;;;;;;;;;13.70;92.00;;;;;;5084225;28;19911;-78
2021/04/12 09:12:39;;;;;;;1.45;1.35;;;17.10;69.20;;;;;;5073366;28;19930;-76
2021/04/12 09:15:15;;;;;;;3.95;1.52;;;19.70;60.50;;;;;;5073303;28;20491;-78
2021/04/12 09:18:13;;;;;;;4.78;1.25;;;19.50;55.90;;;;;;5073032;28;20028;-76
2021/04/12 09:20:53;;;;;;;2.55;1.20;;;16.00;61.80;;;;;;5072950;28;20023;-76
2021/04/12 09:23:37;;;;;;;2.70;1.27;;;12.90;67.60;;;;;;5073590;28;20024;-76
2021/04/12 09:26:22;;;;;;;;;;;10.70;83.30;;;;;;5072437;28;20475;-76
2021/04/12 09:29:14;;;;;;;3.30;0.90;;;11.60;85.00;;;;;;5075997;28;19945;-78
2021/04/12 09:32:07;;;;;;;2.40;1.20;;;16.10;71.30;;;;;;5093170;28;20024;-78
2021/04/12 09:35:15;;;;;;;2.00;1.35;;;16.60;58.70;;;;;;5093093;28;20077;-76
2021/04/12 09:38:13;;;;;;;3.78;1.50;;;13.80;65.40;;;;;;5079798;28;20029;-77
2021/04/12 09:40:38;;;;;;;4.17;1.80;;;13.40;68.00;;;;;;5072514;28;20063;-76
2021/04/12 09:43:35;;;;;;;2.50;1.13;;;16.10;68.30;;;;;;5086508;28;20059;-77
2021/04/12 09:46:32;;;;;;;4.33;1.73;;;16.10;63.00;;;;;;5084420;28;20100;-76
2021/04/12 09:49:33;;;;;;;1.10;1.00;;;14.00;66.00;;;;;;5073756;28;20441;-77
2021/04/12 09:52:17;;;;;;;;;;;12.00;71.40;;;;;;5073975;28;20035;-77
2021/04/12 09:54:52;;;;;;;;;;;11.40;83.70;;;;;;5073670;28;19915;-75
2021/04/12 09:58:08;;;;;;;3.95;1.70;;;13.60;74.30;;;;;;5073970;28;19904;-77
2021/04/12 10:00:36;;;;;;;;;;;12.80;73.70;;;;;;5073055;28;20124;-75
2021/04/12 10:03:15;;;;;;;;;;;11.70;90.60;;;;;;5083256;28;19908;-77
2021/04/12 10:05:58;;;;;;;;;;;10.90;90.20;;;;;;5072172;28;20383;-78
2021/04/12 10:08:31;;;;;;;;;;;11.50;95.70;;;;;;5073760;28;19943;-77
2021/04/12 10:11:05;;;;;;;0.88;0.60;;;15.80;77.40;;;;;;5076227;28;19908;-76
2021/04/12 10:13:49;;;;;;;2.22;1.08;;;19.80;59.10;;;;;;5083888;28;20115;-76
2021/04/12 10:16:23;;;;;;;2.00;1.35;;;20.40;54.80;;;;;;5077943;28;20103;-77
2021/04/12 10:19:07;;;;;;;1.05;0.70;;;20.80;48.10;;;;;;5073434;28;20100;-77
2021/04/12 10:21:38;;;;;;;0.47;0.47;;;22.40;48.70;;;;;;5079712;28;20021;-77
2021/04/12 10:24:14;;;;;;;2.70;0.77;;;19.80;47.90;;;;;;5083210;28;20062;-78
2021/04/12 10:27:05;;;;;;;1.70;0.70;;;15.30;51.70;;;;;;5084635;28;20039;-76
2021/04/12 10:29:33;;;;;;;;;;;13.20;57.70;;;;;;5083650;28;20040;-77
2021/04/12 10:32:06;;;;;;;;;;;12.20;61.30;;;;;;5074864;28;20003;-77
2021/04/12 10:34:41;;;;;;;2.63;1.00;;;12.80;62.10;;;;;;5085447;28;20020;-78
2021/04/12 10:37:44;;;;;;;2.10;0.90;;;16.40;58.60;;;;;;5093736;28;20024;-77
2021/04/12 10:40:17;;;;;;;2.63;1.02;;;17.70;52.10;;;;;;5093010;28;20049;-77
2021/04/12 10:43:20;;;;;;;1.98;1.35;;;17.70;53.00;;;;;;5093043;28;20097;-77
2021/04/12 10:45:56;;;;;;;0.95;0.93;;;17.10;55.70;;;;;;5089035;28;20088;-76
2021/04/12 10:48:34;;;;;;;2.97;0.90;;;15.50;56.40;;;;;;5073060;28;20093;-77
2021/04/12 10:51:06;;;;;;;1.48;1.30;;;13.80;61.70;;;;;;5071642;28;20107;-77
2021/04/12 10:53:32;;;;;;;;;;;11.30;63.80;;;;;;5072282;28;20119;-77
2021/04/12 10:56:09;;;;;;;;;;;10.80;72.00;;;;;;5072032;28;19999;-77
2021/04/12 10:58:53;;;;;;;;;;;10.50;81.20;;;;;;5071578;28;19978;-77
2021/04/12 11:01:41;;;;;;;;;;;10.10;88.30;;;;;;5071204;28;19905;-77
2021/04/12 11:04:11;;;;;;;;;;;9.90;78.90;;;;;;5071470;28;19904;-77
2021/04/12 11:06:51;;;;;;;;;;;9.90;89.20;;;;;;5072062;28;20279;-77
2021/04/12 11:09:29;;;;;;;;;;;9.80;76.00;;;;;;5072445;28;19947;-77
2021/04/12 11:11:56;;;;;;;;;;;10.10;83.90;;;;;;5071543;28;19904;-77
2021/04/12 11:14:26;;;;;;;;;;;10.40;82.30;;;;;;5069304;28;19913;-77
2021/04/12 11:17:01;;;;;;;;;;;11.10;78.30;;;;;;5072468;28;19905;-77
2021/04/12 11:19:31;;;;;;;;;;;11.40;75.80;;;;;;5070851;28;19940;-77
2021/04/12 11:22:06;;;;;;;;;;;11.50;75.50;;;;;;5072167;28;19909;-77
2021/04/12 11:24:54;;;;;;;;;;;11.70;76.20;;;;;;5071480;28;19904;-77
2021/04/12 11:27:41;;;;;;;0.50;0.50;;;11.80;80.20;;;;;;5072430;28;19904;-77
2021/04/12 11:30:13;;;;;;;0.40;0.40;;;12.20;73.10;;;;;;5071153;28;20020;-78
2021/04/12 11:32:57;;;;;;;0.73;0.40;;;12.10;75.90;;;;;;5070700;28;20396;-77
2021/04/12 11:35:51;;;;;;;0.90;0.60;;;11.70;75.10;;;;;;5070273;28;20060;-76
2021/04/12 11:38:20;;;;;;;0.70;0.50;;;11.40;78.70;;;;;;5083986;28;20475;-77
2021/04/12 11:40:56;;;;;;;0.50;0.30;;;11.30;72.70;;;;;;5091172;28;20035;-76
2021/04/12 11:43:30;;;;;;;2.72;0.73;;;11.10;81.20;;;;;;5090054;28;20028;-76
2021/04/12 11:46:02;;;;;;;1.50;0.50;;;11.30;86.60;;;;;;5090419;28;20035;-75
2021/04/12 11:48:27;;;;;;;1.00;0.65;;;11.60;82.30;;;;;;5091614;28;20029;-77
2021/04/12 11:51:18;;;;;;;;;;;11.80;77.40;;;;;;5092318;28;20495;-76
2021/04/12 11:53:46;;;;;;;;;;;11.90;75.30;;;;;;5092055;28;20398;-77
2021/04/12 11:56:45;;;;;;;1.90;1.75;;;11.80;76.80;;;;;;5092014;28;19911;-75
2021/04/12 11:59:51;;;;;;;1.02;0.70;;;11.70;78.40;;;;;;5090749;28;20020;-77
2021/04/12 12:02:35;;;;;;;2.55;0.73;;;11.90;75.90;;;;;;5068462;28;20127;-76
2021/04/12 12:05:14;;;;;;;0.45;0.45;;;12.20;78.70;;;;;;5091556;28;20025;-76
2021/04/12 12:07:53;;;;;;;3.75;0.75;;;12.40;75.90;;;;;;5091123;28;20024;-77
2021/04/12 12:10:22;;;;;;;;;;;13.40;68.00;;;;;;5092265;28;20028;-77
2021/04/12 12:13:33;;;;;;;2.25;0.55;;;13.80;65.70;;;;;;5092859;28;19950;-77
2021/04/12 12:16:08;;;;;;;1.45;0.50;;;13.70;61.90;;;;;;5074773;28;20031;-77
2021/04/12 12:18:51;;;;;;;1.33;0.55;;;13.20;63.30;;;;;;5089877;28;20017;-75
2021/04/12 12:21:18;;;;;;;;;;;13.40;67.50;;;;;;5090752;28;20016;-76
2021/04/12 12:23:49;;;;;;;;;;;13.70;78.40;;;;;;5077721;28;20445;-75
2021/04/12 12:26:31;;;;;;;0.50;0.50;;;13.70;67.00;;;;;;5071993;28;19954;-77
2021/04/12 12:29:10;;;;;;;0.52;0.52;;;12.90;63.40;;;;;;5070796;28;20024;-76
2021/04/12 12:31:46;;;;;;;0.38;0.38;;;12.40;71.50;;;;;;5070331;28;20079;-76
2021/04/12 12:34:17;;;;;;;1.00;0.63;;;12.50;70.50;;;;;;5069613;28;20028;-76
2021/04/12 12:36:55;;;;;;;0.40;0.40;;;12.50;70.80;;;;;;5073198;28;22348;-76
2021/04/12 12:39:44;;;;;;;1.02;0.40;;;12.30;69.70;;;;;;5073837;28;20059;-78
2021/04/12 12:42:14;;;;;;;;;;;12.30;67.20;;;;;;5075780;28;20566;-77
2021/04/12 12:44:41;;;;;;;;;;;11.90;70.30;;;;;;5093036;28;19903;-77
2021/04/12 12:47:09;;;;;;;;;;;12.10;69.50;;;;;;5076003;28;19973;-78
2021/04/12 12:49:38;;;;;;;0.50;0.40;;;12.90;75.90;;;;;;5093925;28;20025;-78
2021/04/12 12:52:13;;;;;;;2.00;0.30;;;13.40;66.10;;;;;;5076239;28;19937;-78
2021/04/12 12:54:52;;;;;;;1.98;0.52;;;13.60;61.30;;;;;;5074661;28;20028;-77
2021/04/12 12:57:33;;;;;;;0.20;0.20;;;12.90;60.40;;;;;;5075229;28;20429;-77
2021/04/12 13:00:08;;;;;;;0.55;0.25;;;13.00;66.20;;;;;;5074838;28;20024;-78
2021/04/12 13:02:37;;;;;;;;;;;13.50;69.50;;;;;;5093260;28;20114;-78
2021/04/12 13:05:22;;;;;;;;;;;13.70;67.00;;;;;;5093500;28;19904;-78
2021/04/12 13:07:49;;;;;;;;;;;13.70;71.70;;;;;;5076290;28;19981;-78
2021/04/12 13:10:37;;;;;;;0.60;0.40;;;12.70;65.90;;;;;;5075416;28;20292;-77
2021/04/12 13:13:31;;;;;;;0.77;0.40;;;11.90;65.90;;;;;;5091750;28;20380;-77
2021/04/12 13:16:18;;;;;;;0.20;0.20;;;11.40;69.70;;;;;;5092764;28;20021;-78
2021/04/12 13:18:59;;;;;;;0.77;0.77;;;11.20;69.30;;;;;;5093572;28;20297;-77
2021/04/12 13:21:33;;;;;;;0.10;0.10;;;11.00;72.20;;;;;;5093790;28;20047;-78
2021/04/12 13:24:22;;;;;;;;;;;10.90;72.10;;;;;;5092505;28;19991;-77
2021/04/12 13:27:13;;;;;;;;;;;10.60;74.90;;;;;;5093605;28;19904;-77
2021/04/12 13:29:56;;;;;;;;;;;10.50;73.80;;;;;;5090772;28;19911;-77
2021/04/12 13:32:24;;;;;;;;;;;10.40;79.30;;;;;;5095367;28;19912;-77
2021/04/12 13:34:52;;;;;;;;;;;10.10;78.40;;;;;;5092475;28;19908;-78
2021/04/12 13:37:20;;;;;;;;;;;9.90;76.30;;;;;;5094195;28;19991;-79
2021/04/12 13:39:51;;;;;;;;;;;9.80;80.70;;;;;;5095938;28;20371;-79
2021/04/12 13:42:17;;;;;;;;;;;9.70;86.00;;;;;;5095772;28;19915;-78
2021/04/12 13:44:44;;;;;;;;;;;9.70;90.60;;;;;;5076386;28;19904;-78
2021/04/12 13:47:15;;;;;;;;;;;9.70;94.80;;;;;;5095643;28;19904;-78
2021/04/12 13:49:56;;;;;;;;;;;9.70;96.10;;;;;;5095304;28;19911;-79
2021/04/12 13:52:27;;;;;;;;;;;10.20;92.50;;;;;;5077380;28;20048;-79
2021/04/12 13:55:01;;;;;;;0.30;0.20;;;10.80;87.60;;;;;;5095480;28;19908;-78
2021/04/12 13:57:36;;;;;;;0.60;0.60;;;11.50;82.70;;;;;;5093932;28;20550;-78
2021/04/12 14:00:23;;;;;;;0.40;0.40;;;11.80;81.80;;;;;;5095886;28;20016;-79
2021/04/12 14:02:57;;;;;;;0.38;0.32;;;12.20;75.10;;;;;;5090202;28;20033;-78
2021/04/12 14:05:36;;;;;;;0.55;0.50;;;12.40;85.10;;;;;;5097580;28;20020;-77
2021/04/12 14:08:14;;;;;;;0.88;0.30;;;12.40;71.60;;;;;;5076683;28;20028;-78
2021/04/12 14:10:53;;;;;;;0.75;0.75;;;11.80;69.70;;;;;;5094808;28;20031;-78
2021/04/12 14:13:39;;;;;;;0.38;0.30;;;11.40;70.00;;;;;;5076409;28;20028;-78
2021/04/12 14:16:11;;;;;;;2.15;0.55;;;11.60;78.20;;;;;;5094129;28;20018;-78
2021/04/12 14:18:41;;;;;;;0.68;0.68;;;11.80;73.60;;;;;;5094430;28;20077;-78
2021/04/12 14:21:17;;;;;;;0.60;0.50;;;11.80;74.70;;;;;;5085611;28;20054;-78
2021/04/12 14:23:57;;;;;;;0.28;0.28;;;11.40;71.40;;;;;;5085734;28;20077;-77
2021/04/12 14:26:26;;;;;;;0.73;0.60;;;11.30;82.00;;;;;;5097603;28;20079;-78
2021/04/12 14:28:55;;;;;;;1.15;0.60;;;11.30;75.90;;;;;;5094501;28;20514;-78
2021/04/12 14:31:21;;;;;;;0.43;0.32;;;11.20;73.60;;;;;;5089395;28;20039;-78
2021/04/12 14:33:47;;;;;;;;;;;11.10;78.80;;;;;;5095978;28;20039;-79
2021/04/12 14:36:15;;;;;;;0.50;0.50;;;10.90;80.50;;;;;;5115262;28;19904;-78
2021/04/12 14:38:42;;;;;;;;;;;10.50;86.40;;;;;;5097009;28;20031;-78
2021/04/12 14:41:18;;;;;;;;;;;10.30;87.80;;;;;;5114938;28;19904;-78
2021/04/12 14:43:54;;;;;;;0.30;0.30;;;10.00;81.10;;;;;;5114815;28;19903;-78
2021/04/12 14:46:23;;;;;;;;;;;9.80;89.60;;;;;;5114693;28;20394;-78
2021/04/12 14:48:53;;;;;;;;;;;9.60;92.50;;;;;;5113884;28;19915;-78
2021/04/12 14:51:30;;;;;;;;;;;9.50;94.10;;;;;;5114129;28;19911;-78
2021/04/12 14:54:05;;;;;;;;;;;9.60;90.40;;;;;;5095236;28;19963;-76
2021/04/12 14:56:39;;;;;;;;;;;9.30;92.00;;;;;;5114345;28;20388;-78
2021/04/12 14:59:07;;;;;;;;;;;9.20;94.80;;;;;;5113881;28;19910;-78
2021/04/12 15:01:42;;;;;;;;;;;9.00;93.30;;;;;;5097769;28;19904;-78